createdAt,value
2023-11-12T07:52:43.126Z,2.28
2023-11-12T07:55:10.996Z,2.09
2023-11-12T07:57:40.091Z,2.40
2023-11-12T08:00:07.763Z,2.46
2023-11-12T08:02:40.264Z,2.39
2023-11-12T08:05:11.440Z,2.49
2023-11-12T08:07:38.581Z,2.57
2023-11-12T08:10:06.947Z,2.65
2023-11-12T08:12:33.698Z,2.67
2023-11-12T08:15:01.161Z,2.65
2023-11-12T08:17:28.016Z,2.72
2023-11-12T08:19:55.162Z,2.62
2023-11-12T08:22:21.870Z,2.76
2023-11-12T08:24:48.882Z,2.90
2023-11-12T08:27:16.305Z,3.07
2023-11-12T08:29:43.445Z,3.03
2023-11-12T08:32:10.400Z,3.05
2023-11-12T08:34:38.181Z,2.88
2023-11-12T08:37:05.195Z,2.96
2023-11-12T08:39:32.119Z,2.97
2023-11-12T08:41:59.056Z,2.96
2023-11-12T08:44:26.105Z,3.20
2023-11-12T08:46:53.674Z,3.30
2023-11-12T08:49:20.461Z,3.40
2023-11-12T08:51:47.279Z,3.41
2023-11-12T08:54:14.309Z,3.49
2023-11-12T08:56:40.948Z,3.69
2023-11-12T08:59:08.841Z,3.64
2023-11-12T09:01:36.227Z,3.68
2023-11-12T09:04:03.370Z,3.51
2023-11-12T09:06:30.116Z,3.56
2023-11-12T09:08:57.830Z,3.57
2023-11-12T09:11:24.699Z,3.64
2023-11-12T09:13:51.992Z,3.76
2023-11-12T09:16:19.166Z,3.50
2023-11-12T09:18:45.977Z,3.86
2023-11-12T09:21:13.060Z,3.96
2023-11-12T09:23:40.402Z,4.09
2023-11-12T09:26:07.143Z,4.10
2023-11-12T09:28:33.772Z,4.19
2023-11-12T09:31:00.985Z,4.23
2023-11-12T09:33:28.413Z,4.47
2023-11-12T09:35:55.501Z,4.37
2023-11-12T09:38:22.544Z,4.48
2023-11-12T09:40:50.881Z,4.69
2023-11-12T09:43:18.358Z,4.32
2023-11-12T09:45:50.338Z,4.60
2023-11-12T09:48:36.079Z,4.66
2023-11-12T09:51:07.313Z,4.56
2023-11-12T09:53:35.469Z,4.53
2023-11-12T09:56:10.235Z,4.55
2023-11-12T09:58:39.275Z,4.86
2023-11-12T10:01:08.346Z,4.81
2023-11-12T10:03:36.086Z,4.62
2023-11-12T10:06:06.885Z,4.57
2023-11-12T10:08:37.737Z,4.35
2023-11-12T10:11:41.971Z,4.92
2023-11-12T10:14:16.675Z,4.91
2023-11-12T10:16:43.509Z,5.10
2023-11-12T10:19:13.646Z,5.25
2023-11-12T10:22:01.262Z,5.30
2023-11-12T10:24:29.348Z,5.25
2023-11-12T10:27:01.425Z,5.26
2023-11-12T10:29:28.434Z,5.04
2023-11-12T10:31:55.731Z,5.07
2023-11-12T10:34:24.949Z,5.18
2023-11-12T10:37:05.763Z,5.32
2023-11-12T10:39:41.981Z,5.47
2023-11-12T10:42:24.446Z,5.31
2023-11-12T10:45:00.219Z,5.44
2023-11-12T10:47:29.746Z,5.83
2023-11-12T10:49:57.154Z,5.75
2023-11-12T10:52:24.520Z,5.97
2023-11-12T10:54:52.284Z,5.64
2023-11-12T10:57:22.018Z,5.56
2023-11-12T10:59:50.099Z,5.67
2023-11-12T11:02:21.213Z,5.50
2023-11-12T11:04:48.621Z,5.69
2023-11-12T11:07:16.275Z,5.58
2023-11-12T11:09:44.116Z,5.43
2023-11-12T11:12:11.889Z,5.61
2023-11-12T11:14:38.651Z,5.69
2023-11-12T11:17:07.055Z,5.87
2023-11-12T11:19:46.183Z,5.75
2023-11-12T11:22:33.597Z,5.47
2023-11-12T11:25:21.144Z,5.46
2023-11-12T11:27:48.351Z,5.92
2023-11-12T11:30:18.677Z,6.09
2023-11-12T11:33:00.571Z,6.23
2023-11-12T11:35:28.497Z,5.86
2023-11-12T11:38:10.371Z,5.99
2023-11-12T11:40:38.252Z,6.15
2023-11-12T11:43:23.583Z,6.29
2023-11-12T11:46:12.609Z,6.14
2023-11-12T11:48:45.458Z,6.43
2023-11-12T11:51:39.684Z,6.16
2023-11-12T11:54:07.359Z,6.29
2023-11-12T11:56:35.229Z,6.13
2023-11-12T11:59:02.914Z,6.48
2023-11-12T12:01:29.705Z,6.41
2023-11-12T12:04:06.465Z,6.31
2023-11-12T12:06:34.520Z,6.44
2023-11-12T12:09:01.314Z,6.32
2023-11-12T12:11:28.053Z,6.36
2023-11-12T12:14:06.640Z,6.11
2023-11-12T12:16:34.796Z,5.85
2023-11-12T12:19:02.582Z,6.05
2023-11-12T12:21:31.730Z,6.26
2023-11-12T12:23:58.581Z,6.09
2023-11-12T12:26:28.472Z,6.18
2023-11-12T12:28:56.028Z,6.25
2023-11-12T12:31:28.794Z,6.16
2023-11-12T12:34:02.658Z,6.37
2023-11-12T12:36:29.388Z,6.29
2023-11-12T12:39:00.677Z,6.29
2023-11-12T12:41:29.014Z,6.00
2023-11-12T12:43:57.456Z,6.12
2023-11-12T12:46:25.637Z,6.36
2023-11-12T12:48:57.102Z,6.52
2023-11-12T12:51:24.109Z,6.34
2023-11-12T12:53:51.970Z,6.51
2023-11-12T12:56:20.206Z,6.44
2023-11-12T12:58:47.685Z,6.41
2023-11-12T13:01:15.995Z,6.60
2023-11-12T13:03:46.627Z,6.39
2023-11-12T13:06:16.118Z,6.73
2023-11-12T13:08:44.940Z,6.98
2023-11-12T13:11:11.964Z,6.93
2023-11-12T13:13:39.415Z,6.84
2023-11-12T13:16:11.095Z,6.87
2023-11-12T13:18:39.628Z,6.90
2023-11-12T13:21:07.397Z,6.85
2023-11-12T13:23:39.603Z,6.76
2023-11-12T13:26:06.660Z,6.93
2023-11-12T13:28:34.151Z,6.45
2023-11-12T13:31:01.888Z,6.50
2023-11-12T13:33:28.970Z,6.43
2023-11-12T13:36:01.177Z,6.21
2023-11-12T13:38:34.784Z,6.23
2023-11-12T13:41:01.937Z,6.16
2023-11-12T13:43:30.114Z,5.95
2023-11-12T13:45:56.952Z,6.16
2023-11-12T13:48:26.246Z,6.19
2023-11-12T13:50:56.435Z,5.83
2023-11-12T13:53:25.241Z,6.08
2023-11-12T13:55:57.731Z,6.25
2023-11-12T13:58:26.242Z,6.18
2023-11-12T14:00:52.974Z,5.91
2023-11-12T14:03:19.792Z,6.09
2023-11-12T14:05:46.479Z,6.16
2023-11-12T14:08:14.285Z,5.94
2023-11-12T14:10:40.949Z,6.20
2023-11-12T14:13:10.389Z,6.34
2023-11-12T14:15:37.167Z,5.93
2023-11-12T14:18:04.136Z,5.94
2023-11-12T14:20:31.085Z,5.93
2023-11-12T14:22:57.961Z,5.95
2023-11-12T14:25:25.141Z,5.90
2023-11-12T14:27:53.612Z,6.18
2023-11-12T14:30:22.110Z,6.04
2023-11-12T14:32:49.272Z,6.06
2023-11-12T14:35:18.969Z,5.83
2023-11-12T14:37:48.448Z,5.80
2023-11-12T14:40:15.732Z,5.72
2023-11-12T14:42:42.772Z,5.69
2023-11-12T14:45:21.171Z,5.52
2023-11-12T14:47:54.944Z,5.49
2023-11-12T14:50:22.799Z,5.52
2023-11-12T14:52:51.945Z,5.59
2023-11-12T14:55:25.013Z,5.37
2023-11-12T14:57:56.321Z,5.04
2023-11-12T15:00:31.476Z,5.11
2023-11-12T15:02:59.970Z,5.06
2023-11-12T15:05:31.585Z,4.83
2023-11-12T15:07:58.457Z,4.95
2023-11-12T15:10:25.260Z,4.74
2023-11-12T15:12:52.495Z,4.90
2023-11-12T15:15:21.089Z,4.75
2023-11-12T15:17:49.333Z,4.79
2023-11-12T15:20:16.233Z,4.67
2023-11-12T15:22:44.995Z,4.78
2023-11-12T15:25:17.740Z,4.60
2023-11-12T15:27:46.382Z,4.51
2023-11-12T15:30:14.585Z,4.51
2023-11-12T15:32:42.845Z,4.56
2023-11-12T15:35:10.762Z,4.48
2023-11-12T15:37:38.377Z,4.65
2023-11-12T15:40:15.196Z,4.53
2023-11-12T15:42:46.380Z,4.64
2023-11-12T15:45:14.322Z,4.46
2023-11-12T15:47:40.985Z,4.50
2023-11-12T15:50:10.516Z,4.53
2023-11-12T15:52:38.026Z,4.62
2023-11-12T15:55:05.153Z,4.68
2023-11-12T15:57:32.314Z,4.61
2023-11-12T15:59:59.326Z,4.56
2023-11-12T16:02:26.349Z,4.51
2023-11-12T16:04:53.183Z,4.58
2023-11-12T16:07:20.435Z,4.55
2023-11-12T16:09:47.225Z,4.57
2023-11-12T16:12:14.026Z,4.70
2023-11-12T16:14:40.643Z,4.56
2023-11-12T16:17:07.324Z,4.68
2023-11-12T16:19:34.016Z,4.59
2023-11-12T16:22:00.806Z,4.67
2023-11-12T16:24:27.684Z,4.65
2023-11-12T16:26:54.586Z,4.55
2023-11-12T16:29:21.482Z,4.69
2023-11-12T16:31:48.435Z,4.74
2023-11-12T16:34:15.217Z,4.74
2023-11-12T16:36:41.991Z,4.45
2023-11-12T16:39:09.993Z,4.62
2023-11-12T16:41:36.632Z,4.63
2023-11-12T16:44:04.628Z,4.77
2023-11-12T16:46:33.119Z,4.78
2023-11-12T16:48:59.917Z,4.65
2023-11-12T16:51:26.584Z,4.75
2023-11-12T16:53:53.251Z,4.71
2023-11-12T16:56:21.018Z,4.68
2023-11-12T16:58:48.551Z,4.82
2023-11-12T17:01:16.135Z,4.67
2023-11-12T17:03:43.060Z,4.69
2023-11-12T17:06:10.641Z,4.66
2023-11-12T17:08:37.715Z,4.58
2023-11-12T17:11:06.972Z,4.66
2023-11-12T17:13:34.251Z,4.58
2023-11-12T17:16:00.986Z,4.60
2023-11-12T17:18:28.706Z,4.65
2023-11-12T17:20:55.448Z,4.54
2023-11-12T17:23:22.825Z,4.45
2023-11-12T17:25:49.577Z,4.54
2023-11-12T17:28:16.270Z,4.43
2023-11-12T17:30:43.048Z,4.38
2023-11-12T17:33:09.776Z,4.33
2023-11-12T17:35:38.349Z,4.52
2023-11-12T17:38:04.860Z,4.52
2023-11-12T17:40:31.763Z,4.46
2023-11-12T17:42:58.467Z,4.44
2023-11-12T17:45:25.154Z,4.52
2023-11-12T17:47:52.392Z,4.42
2023-11-12T17:50:19.146Z,4.33
2023-11-12T17:52:46.862Z,4.53
2023-11-12T17:55:14.330Z,4.45
2023-11-12T17:57:41.482Z,4.47
2023-11-12T18:00:10.068Z,4.53
2023-11-12T18:02:40.903Z,4.60
2023-11-12T18:05:08.068Z,4.52
2023-11-12T18:07:34.833Z,4.44
2023-11-12T18:10:03.646Z,4.35
2023-11-12T18:12:30.633Z,4.29
2023-11-12T18:14:58.359Z,4.30
2023-11-12T18:17:26.752Z,4.29
2023-11-12T18:19:53.385Z,4.39
2023-11-12T18:22:21.533Z,4.42
2023-11-12T18:24:49.379Z,4.17
2023-11-12T18:27:16.485Z,4.21
2023-11-12T18:29:44.970Z,4.27
2023-11-12T18:32:11.634Z,4.37
2023-11-12T18:34:38.612Z,4.34
2023-11-12T18:37:05.592Z,4.22
2023-11-12T18:39:32.528Z,3.97
2023-11-12T18:41:59.444Z,4.19
2023-11-12T18:44:26.174Z,4.24
2023-11-12T18:46:55.175Z,4.30
2023-11-12T18:49:23.159Z,4.12
2023-11-12T18:51:49.843Z,4.25
2023-11-12T18:54:16.554Z,4.10
2023-11-12T18:56:43.231Z,4.28
2023-11-12T18:59:12.104Z,4.11
2023-11-12T19:01:40.230Z,4.18
2023-11-12T19:04:07.566Z,4.28
2023-11-12T19:06:39.829Z,4.25
2023-11-12T19:09:08.909Z,4.25
2023-11-12T19:11:36.232Z,4.21
2023-11-12T19:14:05.382Z,4.19
2023-11-12T19:16:32.189Z,4.14
2023-11-12T19:19:02.404Z,4.14
2023-11-12T19:21:30.320Z,4.05
2023-11-12T19:23:56.933Z,3.94
2023-11-12T19:26:23.636Z,4.03
2023-11-12T19:28:50.280Z,4.00
2023-11-12T19:31:27.967Z,3.83
2023-11-12T19:33:59.571Z,4.09
2023-11-12T19:36:26.261Z,3.95
2023-11-12T19:38:52.869Z,4.03
2023-11-12T19:41:19.644Z,4.12
2023-11-12T19:43:46.307Z,4.09
2023-11-12T19:46:14.442Z,4.15
2023-11-12T19:48:41.915Z,4.09
2023-11-12T19:51:08.620Z,4.06
2023-11-12T19:53:35.320Z,3.99
2023-11-12T19:56:04.620Z,4.13
2023-11-12T19:58:31.323Z,4.28
2023-11-12T20:00:58.660Z,4.08
2023-11-12T20:03:25.574Z,4.26
2023-11-12T20:05:52.274Z,4.26
2023-11-12T20:08:18.975Z,4.20
2023-11-12T20:10:48.125Z,4.04
2023-11-12T20:13:15.225Z,4.08
2023-11-12T20:15:42.309Z,4.24
2023-11-12T20:18:10.565Z,4.21
2023-11-12T20:20:40.511Z,4.23
2023-11-12T20:23:08.817Z,4.14
2023-11-12T20:25:36.686Z,4.32
2023-11-12T20:28:04.993Z,4.30
2023-11-12T20:30:37.445Z,4.33
2023-11-12T20:33:04.260Z,4.28
2023-11-12T20:35:31.055Z,4.36
2023-11-12T20:38:00.257Z,4.34
2023-11-12T20:40:31.044Z,4.25
2023-11-12T20:42:57.755Z,4.54
2023-11-12T20:45:26.393Z,4.54
2023-11-12T20:47:53.317Z,4.54
2023-11-12T20:50:20.484Z,4.45
2023-11-12T20:52:47.666Z,4.51
2023-11-12T20:55:17.216Z,4.67
2023-11-12T20:57:50.825Z,4.55
2023-11-12T21:00:22.231Z,4.63
2023-11-12T21:02:50.452Z,4.75
2023-11-12T21:05:17.529Z,4.62
2023-11-12T21:07:44.199Z,4.48
2023-11-12T21:10:10.927Z,4.27
2023-11-12T21:12:37.642Z,4.57
2023-11-12T21:15:07.293Z,4.32
2023-11-12T21:17:33.966Z,4.58
2023-11-12T21:20:00.700Z,4.65
2023-11-12T21:22:27.367Z,4.49
2023-11-12T21:24:54.655Z,4.32
2023-11-12T21:27:21.373Z,4.58
2023-11-12T21:29:51.480Z,4.58
2023-11-12T21:32:20.328Z,4.43
2023-11-12T21:34:47.780Z,4.10
2023-11-12T21:37:14.589Z,4.30
